Terminal Aerodrome Forecast
Issued by NWS

Home | Current Version | Previous Version | Graphics & Text | Print | Product List | Glossary On
Versions: 1 2 3 4 5 6 7 8 9 10 11 12 13 14 15 16 17 18
238
FTUS43 KTOP 111132
TAFFOE
TAF
KFOE 111132Z 1112/1212 02007KT P6SM SKC
     FM111300 05008KT P6SM BKN011
      TEMPO 1113/1114 BKN008
     FM111700 09007KT P6SM BKN022
     FM111900 14006KT P6SM SCT025 BKN150
     FM120900 32011G20KT P6SM SCT020=

USA.gov is the U.S. government's official web portal to all federal, state and local government web resources and services.